createdAt,value
2023-05-12T00:01:35.101Z,9.00
2023-05-12T00:04:02.456Z,9.00
2023-05-12T00:06:29.777Z,9.00
2023-05-12T00:08:56.941Z,9.00
2023-05-12T00:11:24.208Z,9.00
2023-05-12T00:13:51.490Z,8.90
2023-05-12T00:16:18.994Z,8.90
2023-05-12T00:18:46.296Z,8.90
2023-05-12T00:21:14.450Z,9.00
2023-05-12T00:23:41.995Z,9.00
2023-05-12T00:26:09.202Z,9.00
2023-05-12T00:28:36.488Z,9.00
2023-05-12T00:31:04.113Z,8.90
2023-05-12T00:33:31.808Z,8.90
2023-05-12T00:36:03.596Z,8.90
2023-05-12T00:38:30.863Z,8.90
2023-05-12T00:40:58.126Z,9.00
2023-05-12T00:43:25.354Z,8.90
2023-05-12T00:45:53.046Z,8.90
2023-05-12T00:48:20.528Z,8.90
2023-05-12T00:50:47.936Z,8.90
2023-05-12T00:53:15.190Z,8.90
2023-05-12T00:55:42.708Z,9.00
2023-05-12T00:58:09.904Z,9.00
2023-05-12T01:00:37.083Z,9.00
2023-05-12T01:03:05.024Z,9.00
2023-05-12T01:05:52.970Z,9.00
2023-05-12T01:08:21.026Z,9.00
2023-05-12T01:10:48.242Z,9.00
2023-05-12T01:13:15.512Z,9.00
2023-05-12T01:15:46.836Z,9.00
2023-05-12T01:18:16.313Z,9.00
2023-05-12T01:20:44.720Z,9.00
2023-05-12T01:23:16.157Z,9.00
2023-05-12T01:25:45.112Z,9.00
2023-05-12T01:28:13.082Z,9.00
2023-05-12T01:30:43.971Z,9.00
2023-05-12T01:33:11.217Z,9.00
2023-05-12T01:35:38.485Z,9.00
2023-05-12T01:38:05.614Z,9.00
2023-05-12T01:40:32.751Z,9.00
2023-05-12T01:42:59.955Z,9.00
2023-05-12T01:45:27.132Z,9.00
2023-05-12T01:47:54.404Z,9.00
2023-05-12T01:50:22.217Z,9.00
2023-05-12T01:52:49.471Z,8.90
2023-05-12T01:55:17.429Z,8.90
2023-05-12T01:57:44.653Z,8.90
2023-05-12T02:00:15.263Z,8.90
2023-05-12T02:02:45.565Z,8.90
2023-05-12T02:05:12.878Z,8.90
2023-05-12T02:07:40.051Z,8.90
2023-05-12T02:10:08.022Z,9.00
2023-05-12T02:12:35.350Z,9.00
2023-05-12T02:15:02.632Z,9.00
2023-05-12T02:17:29.852Z,9.00
2023-05-12T02:19:57.023Z,9.00
2023-05-12T02:22:24.254Z,9.00
2023-05-12T02:24:51.617Z,9.10
2023-05-12T02:27:18.806Z,9.10
2023-05-12T02:29:46.038Z,9.10
2023-05-12T02:32:13.358Z,9.10
2023-05-12T02:34:40.629Z,9.10
2023-05-12T02:37:07.838Z,9.10
2023-05-12T02:39:35.033Z,9.10
2023-05-12T02:42:02.188Z,9.10
2023-05-12T02:44:29.336Z,9.10
2023-05-12T02:46:58.026Z,9.10
2023-05-12T02:49:25.196Z,9.10
2023-05-12T02:51:52.388Z,9.10
2023-05-12T02:54:19.571Z,9.10
2023-05-12T02:56:46.816Z,9.00
2023-05-12T02:59:14.112Z,9.00
2023-05-12T03:01:41.374Z,9.00
2023-05-12T03:04:08.565Z,9.00
2023-05-12T03:06:35.796Z,9.00
2023-05-12T03:09:03.876Z,9.00
2023-05-12T03:11:31.227Z,9.00
2023-05-12T03:13:58.524Z,9.00
2023-05-12T03:16:25.764Z,9.00
2023-05-12T03:18:53.736Z,9.00
2023-05-12T03:21:20.985Z,8.90
2023-05-12T03:23:48.273Z,8.90
2023-05-12T03:26:15.487Z,8.90
2023-05-12T03:28:42.719Z,8.90
2023-05-12T03:31:10.331Z,8.90
2023-05-12T03:33:37.568Z,9.00
2023-05-12T03:36:05.104Z,9.00
2023-05-12T03:38:32.238Z,9.10
2023-05-12T03:41:08.619Z,9.10
2023-05-12T03:43:36.084Z,9.10
2023-05-12T03:46:03.917Z,9.10
2023-05-12T03:48:31.238Z,9.10
2023-05-12T03:50:58.540Z,9.10
2023-05-12T03:53:25.759Z,9.10
2023-05-12T03:55:53.051Z,9.10
2023-05-12T03:58:20.277Z,9.00
2023-05-12T04:00:49.782Z,9.00
2023-05-12T04:03:17.512Z,9.00
2023-05-12T04:05:44.857Z,9.00
2023-05-12T04:08:12.633Z,9.00
2023-05-12T04:10:40.789Z,9.10
2023-05-12T04:13:08.777Z,9.10
2023-05-12T04:15:36.541Z,9.10
2023-05-12T04:18:04.333Z,9.00
2023-05-12T04:20:31.535Z,9.00
2023-05-12T04:22:58.713Z,9.10
2023-05-12T04:25:26.595Z,9.10
2023-05-12T04:27:53.800Z,9.20
2023-05-12T04:30:22.219Z,9.20
2023-05-12T04:32:49.644Z,9.10
2023-05-12T04:35:17.154Z,9.10
2023-05-12T04:37:44.296Z,9.10
2023-05-12T04:40:11.833Z,9.20
2023-05-12T04:42:39.047Z,9.20
2023-05-12T04:45:07.377Z,9.20
2023-05-12T04:47:34.670Z,9.20
2023-05-12T04:50:02.031Z,9.20
2023-05-12T04:52:29.481Z,9.20
2023-05-12T04:54:56.746Z,9.30
2023-05-12T04:57:23.968Z,9.20
2023-05-12T04:59:51.110Z,9.20
2023-05-12T05:02:18.409Z,9.20
2023-05-12T05:04:45.643Z,9.20
2023-05-12T05:07:12.936Z,9.30
2023-05-12T05:09:40.113Z,9.30
2023-05-12T05:12:07.770Z,9.20
2023-05-12T05:14:35.052Z,9.20
2023-05-12T05:17:02.428Z,9.20
2023-05-12T05:22:02.391Z,9.20
2023-05-12T05:24:29.594Z,9.20
2023-05-12T05:26:56.931Z,9.20
2023-05-12T05:29:24.262Z,9.20
2023-05-12T05:31:51.551Z,9.30
2023-05-12T05:34:18.884Z,9.30
2023-05-12T05:36:46.206Z,9.10
2023-05-12T05:39:13.564Z,9.20
2023-05-12T05:41:41.138Z,9.10
2023-05-12T05:44:08.351Z,9.20
2023-05-12T05:46:35.665Z,9.20
2023-05-12T05:49:02.874Z,9.30
2023-05-12T05:51:30.109Z,9.20
2023-05-12T05:53:57.260Z,9.20
2023-05-12T05:56:24.441Z,9.20
2023-05-12T05:58:51.630Z,9.20
2023-05-12T06:01:18.792Z,9.10
2023-05-12T06:03:46.093Z,9.10
2023-05-12T06:06:13.566Z,9.20
2023-05-12T06:08:40.762Z,9.20
2023-05-12T06:11:08.002Z,9.20
2023-05-12T06:13:36.291Z,9.30
2023-05-12T06:16:03.655Z,9.40
2023-05-12T06:18:31.136Z,9.30
2023-05-12T06:20:58.327Z,9.30
2023-05-12T06:23:25.514Z,9.40
2023-05-12T06:25:52.674Z,9.40
2023-05-12T06:28:20.086Z,9.40
2023-05-12T06:30:47.399Z,9.40
2023-05-12T06:33:14.594Z,9.50
2023-05-12T06:35:41.742Z,9.50
2023-05-12T06:38:08.916Z,9.40
2023-05-12T06:40:36.068Z,9.30
2023-05-12T06:43:03.258Z,9.40
2023-05-12T06:45:30.826Z,9.40
2023-05-12T06:47:58.398Z,9.50
2023-05-12T06:50:25.583Z,9.60
2023-05-12T06:52:53.523Z,9.60
2023-05-12T06:55:21.259Z,9.60
2023-05-12T06:57:51.638Z,9.70
2023-05-12T07:00:19.206Z,9.70
2023-05-12T07:02:46.466Z,9.70
2023-05-12T07:05:13.668Z,9.60
2023-05-12T07:07:41.507Z,9.70
2023-05-12T07:10:09.248Z,9.80
2023-05-12T07:12:37.485Z,9.90
2023-05-12T07:15:05.607Z,9.80
2023-05-12T07:17:32.778Z,9.80
2023-05-12T07:19:59.964Z,9.80
2023-05-12T07:22:27.419Z,9.80
2023-05-12T07:24:54.568Z,9.90
2023-05-12T07:27:21.868Z,9.90
2023-05-12T07:29:49.090Z,10.00
2023-05-12T07:32:16.260Z,10.00
2023-05-12T07:34:43.757Z,9.90
2023-05-12T07:37:11.231Z,9.90
2023-05-12T07:39:38.565Z,9.90
2023-05-12T07:42:06.112Z,10.10
2023-05-12T07:44:33.644Z,10.20
2023-05-12T07:47:01.200Z,10.10
2023-05-12T07:49:28.358Z,10.10
2023-05-12T07:51:55.524Z,10.10
2023-05-12T07:54:22.736Z,10.10
2023-05-12T07:56:50.547Z,10.10
2023-05-12T07:59:17.823Z,10.10
2023-05-12T08:01:45.083Z,10.00
2023-05-12T08:04:12.484Z,10.00
2023-05-12T08:06:39.981Z,10.00
2023-05-12T08:09:07.299Z,10.00
2023-05-12T08:11:34.671Z,10.20
2023-05-12T08:14:02.303Z,10.30
2023-05-12T08:16:29.653Z,10.30
2023-05-12T08:18:56.872Z,10.30
2023-05-12T08:21:24.180Z,10.30
2023-05-12T08:23:51.407Z,10.40
2023-05-12T08:26:18.588Z,10.50
2023-05-12T08:28:45.881Z,10.60
2023-05-12T08:31:13.413Z,10.60
2023-05-12T08:33:40.763Z,10.60
2023-05-12T08:36:08.072Z,10.40
2023-05-12T08:38:35.278Z,10.40
2023-05-12T08:41:31.752Z,10.50
2023-05-12T08:44:00.217Z,10.60
2023-05-12T08:46:27.622Z,10.70
2023-05-12T08:48:59.383Z,10.80
2023-05-12T08:51:29.415Z,11.00
2023-05-12T08:53:57.186Z,11.10
2023-05-12T08:59:36.576Z,11.10
2023-05-12T09:02:23.887Z,11.00
2023-05-12T09:04:52.542Z,10.90
2023-05-12T09:07:20.080Z,10.80
2023-05-12T09:09:51.704Z,10.80
2023-05-12T09:12:19.736Z,10.80
2023-05-12T09:14:52.739Z,10.80
2023-05-12T09:17:20.229Z,10.70
2023-05-12T09:19:47.382Z,10.60
2023-05-12T09:22:15.200Z,10.50
2023-05-12T09:24:42.443Z,10.50
2023-05-12T09:27:09.872Z,10.60
2023-05-12T09:29:55.610Z,10.80
2023-05-12T09:32:33.974Z,10.80
2023-05-12T09:35:11.371Z,10.40
2023-05-12T09:37:40.056Z,10.40
2023-05-12T09:40:08.603Z,10.40
2023-05-12T09:42:36.269Z,10.60
2023-05-12T09:45:09.441Z,10.60
2023-05-12T09:47:38.102Z,10.60
2023-05-12T09:50:07.285Z,10.60
2023-05-12T09:52:41.111Z,10.60
2023-05-12T09:55:12.895Z,10.80
2023-05-12T09:57:45.380Z,10.80
2023-05-12T10:00:31.293Z,10.80
2023-05-12T10:03:13.601Z,11.00
2023-05-12T10:05:57.650Z,11.20
2023-05-12T10:08:29.723Z,11.50
2023-05-12T10:10:58.026Z,11.90
2023-05-12T10:13:26.413Z,11.80
2023-05-12T10:15:57.034Z,12.00
2023-05-12T10:18:24.927Z,12.10
2023-05-12T10:20:53.883Z,12.30
2023-05-12T10:23:21.719Z,12.40
2023-05-12T10:25:50.105Z,12.50
2023-05-12T10:28:20.617Z,12.70
2023-05-12T10:30:48.667Z,12.80
2023-05-12T10:33:15.951Z,12.80
2023-05-12T10:35:44.060Z,12.80
2023-05-12T10:38:13.189Z,12.60
2023-05-12T10:41:09.687Z,12.60
2023-05-12T10:43:43.056Z,12.70
2023-05-12T10:46:13.071Z,12.60
2023-05-12T10:49:07.089Z,12.50
2023-05-12T10:51:35.163Z,12.40
2023-05-12T10:54:04.875Z,12.00
2023-05-12T10:56:44.776Z,12.10
2023-05-12T10:59:14.066Z,12.40
2023-05-12T11:01:43.708Z,12.30
2023-05-12T11:04:16.281Z,12.50
2023-05-12T11:06:45.183Z,12.60
2023-05-12T11:09:13.251Z,12.60
2023-05-12T11:11:41.127Z,12.60
2023-05-12T11:14:09.610Z,12.50
2023-05-12T11:16:43.519Z,12.60
2023-05-12T11:19:12.962Z,12.70
2023-05-12T11:21:40.448Z,12.60
2023-05-12T11:24:13.361Z,12.60
2023-05-12T11:26:41.630Z,12.90
2023-05-12T11:29:08.883Z,12.80
2023-05-12T11:31:36.502Z,12.80
2023-05-12T11:34:13.181Z,12.90
2023-05-12T11:36:42.759Z,12.90
2023-05-12T11:39:23.068Z,12.90
2023-05-12T11:41:56.641Z,12.60
2023-05-12T11:44:29.578Z,12.30
2023-05-12T11:47:02.189Z,12.40
2023-05-12T11:49:31.643Z,12.70
2023-05-12T11:52:19.587Z,12.90
2023-05-12T11:54:52.687Z,12.90
2023-05-12T11:57:33.511Z,12.80
2023-05-12T12:00:03.410Z,13.00
2023-05-12T12:02:31.685Z,12.90
2023-05-12T12:04:59.578Z,12.80
2023-05-12T12:07:35.313Z,12.90
2023-05-12T12:10:13.660Z,12.80
2023-05-12T12:12:42.848Z,12.80
2023-05-12T12:15:11.134Z,13.10
2023-05-12T12:17:39.669Z,13.40
2023-05-12T12:20:08.373Z,13.20
2023-05-12T12:22:35.821Z,13.10
2023-05-12T12:25:03.572Z,13.30
2023-05-12T12:27:30.909Z,13.30
2023-05-12T12:29:58.111Z,13.50
2023-05-12T12:32:25.419Z,13.30
2023-05-12T12:34:53.429Z,13.20
2023-05-12T12:37:21.445Z,13.50
2023-05-12T12:39:48.803Z,13.50
2023-05-12T12:42:16.093Z,13.40
2023-05-12T12:44:46.063Z,13.50
2023-05-12T12:47:13.678Z,13.40
2023-05-12T12:49:40.841Z,13.50
2023-05-12T12:52:08.198Z,13.30
2023-05-12T12:54:35.574Z,13.30
2023-05-12T12:57:02.776Z,13.20
2023-05-12T12:59:30.137Z,12.90
2023-05-12T13:02:00.129Z,13.20
2023-05-12T13:04:27.493Z,13.10
2023-05-12T13:06:54.661Z,12.80
2023-05-12T13:09:21.871Z,12.70
2023-05-12T13:11:50.261Z,12.70
2023-05-12T13:14:17.426Z,12.60
2023-05-12T13:16:45.426Z,12.40
2023-05-12T13:19:12.693Z,12.50
2023-05-12T13:21:40.057Z,12.30
2023-05-12T13:24:07.610Z,12.10
2023-05-12T13:26:34.861Z,12.00
2023-05-12T13:29:02.309Z,12.00
2023-05-12T13:31:30.118Z,11.80
2023-05-12T13:33:57.653Z,11.70
2023-05-12T13:36:24.927Z,11.70
2023-05-12T13:38:52.096Z,11.50
2023-05-12T13:41:19.272Z,11.40
2023-05-12T13:43:46.480Z,11.40
2023-05-12T13:46:13.654Z,11.50
2023-05-12T13:48:40.838Z,11.60
2023-05-12T13:51:08.637Z,11.60
2023-05-12T13:53:38.551Z,11.70
2023-05-12T13:56:06.798Z,11.90
2023-05-12T13:58:33.952Z,11.90
2023-05-12T14:01:01.738Z,11.90
2023-05-12T14:03:29.587Z,11.80
2023-05-12T14:05:56.834Z,11.80
2023-05-12T14:08:24.353Z,11.90
2023-05-12T14:10:51.853Z,11.90
2023-05-12T14:13:19.197Z,12.00
2023-05-12T14:15:49.215Z,12.00
2023-05-12T14:18:17.441Z,11.90
2023-05-12T14:20:46.531Z,11.80
2023-05-12T14:23:13.930Z,11.80
2023-05-12T14:25:41.211Z,11.60
2023-05-12T14:28:08.913Z,11.60
2023-05-12T14:30:37.515Z,11.60
2023-05-12T14:33:05.455Z,11.60
2023-05-12T14:35:32.858Z,11.60
2023-05-12T14:38:00.264Z,11.70
2023-05-12T14:40:27.543Z,11.80
2023-05-12T14:42:55.496Z,11.80
2023-05-12T14:45:23.293Z,11.50
2023-05-12T14:47:50.778Z,11.50
2023-05-12T14:50:19.219Z,11.60
2023-05-12T14:52:46.836Z,11.80
2023-05-12T14:55:15.045Z,11.80
2023-05-12T14:57:43.065Z,11.90
2023-05-12T15:00:12.586Z,11.90
2023-05-12T15:02:41.523Z,12.00
2023-05-12T15:05:10.697Z,12.00
2023-05-12T15:07:37.990Z,11.90
2023-05-12T15:10:05.979Z,12.00
2023-05-12T15:12:34.506Z,11.90
2023-05-12T15:15:04.116Z,11.90
2023-05-12T15:17:32.010Z,11.90
2023-05-12T15:19:59.367Z,11.90
2023-05-12T15:22:26.928Z,11.80
2023-05-12T15:24:54.111Z,11.80
2023-05-12T15:27:21.293Z,11.70
2023-05-12T15:29:48.443Z,11.50
2023-05-12T15:32:16.249Z,11.50
2023-05-12T15:34:43.470Z,11.40
2023-05-12T15:37:11.618Z,11.30
2023-05-12T15:39:38.892Z,11.30
2023-05-12T15:42:07.396Z,11.00
2023-05-12T15:44:34.787Z,11.20
2023-05-12T15:47:02.096Z,11.20
2023-05-12T15:49:29.475Z,11.20
2023-05-12T15:51:56.622Z,11.20
2023-05-12T15:54:24.933Z,11.20
2023-05-12T15:56:52.149Z,11.20
2023-05-12T15:59:19.928Z,11.30
2023-05-12T16:01:47.175Z,11.30
2023-05-12T16:04:14.478Z,11.30
2023-05-12T16:06:41.732Z,11.40
2023-05-12T16:09:09.672Z,11.30
2023-05-12T16:11:37.072Z,11.30
2023-05-12T16:14:04.581Z,11.20
2023-05-12T16:16:31.856Z,11.20
2023-05-12T16:18:59.195Z,11.20
2023-05-12T16:21:26.492Z,11.20
2023-05-12T16:23:53.670Z,11.20
2023-05-12T16:26:21.020Z,11.00
2023-05-12T16:28:48.313Z,11.00
2023-05-12T16:31:33.610Z,11.00
2023-05-12T16:34:03.298Z,11.00
2023-05-12T16:36:32.192Z,10.90
2023-05-12T16:38:59.858Z,10.90
2023-05-12T16:41:28.803Z,10.80
2023-05-12T16:43:56.450Z,10.70
2023-05-12T16:46:24.380Z,10.70
2023-05-12T16:48:51.718Z,10.80
2023-05-12T16:51:18.991Z,10.80
2023-05-12T16:53:46.398Z,10.80
2023-05-12T16:56:13.636Z,10.70
2023-05-12T16:58:40.992Z,10.60
2023-05-12T17:01:09.545Z,10.60
2023-05-12T17:03:37.004Z,10.50
2023-05-12T17:06:04.388Z,10.50
2023-05-12T17:08:31.645Z,10.50
2023-05-12T17:10:58.944Z,10.40
2023-05-12T17:13:26.210Z,10.40
2023-05-12T17:15:53.779Z,10.40
2023-05-12T17:18:20.958Z,10.50
2023-05-12T17:20:48.322Z,10.30
2023-05-12T17:23:15.845Z,10.40
2023-05-12T17:25:43.138Z,10.40
2023-05-12T17:28:11.109Z,10.40
2023-05-12T17:30:38.506Z,10.40
2023-05-12T17:33:07.626Z,10.50
2023-05-12T17:35:35.038Z,10.50
2023-05-12T17:38:02.334Z,10.40
2023-05-12T17:40:29.610Z,10.40
2023-05-12T17:42:56.879Z,10.50
2023-05-12T17:45:24.370Z,10.30
2023-05-12T17:47:51.722Z,10.20
2023-05-12T17:50:19.092Z,10.30
2023-05-12T17:52:47.021Z,10.30
2023-05-12T17:55:14.286Z,10.40
2023-05-12T17:57:41.490Z,10.30
2023-05-12T18:00:12.183Z,10.30
2023-05-12T18:02:41.122Z,10.20
2023-05-12T18:05:10.048Z,10.30
2023-05-12T18:07:37.445Z,10.30
2023-05-12T18:10:08.330Z,10.20
2023-05-12T18:12:36.225Z,10.40
2023-05-12T18:15:04.986Z,10.40
2023-05-12T18:17:32.595Z,10.40
2023-05-12T18:20:00.152Z,10.30
2023-05-12T18:22:27.662Z,10.30
2023-05-12T18:24:55.122Z,10.40
2023-05-12T18:27:22.431Z,10.40
2023-05-12T18:29:49.615Z,10.40
2023-05-12T18:32:16.843Z,10.20
2023-05-12T18:34:45.597Z,10.30
2023-05-12T18:37:15.385Z,10.20
2023-05-12T18:39:43.274Z,10.20
2023-05-12T18:42:11.339Z,10.30
2023-05-12T18:44:41.179Z,10.30
2023-05-12T18:47:08.997Z,10.30
2023-05-12T18:49:36.772Z,10.30
2023-05-12T18:52:04.429Z,10.30
2023-05-12T18:54:31.997Z,10.30
2023-05-12T18:56:59.262Z,10.30
2023-05-12T18:59:26.893Z,10.20
2023-05-12T19:01:54.342Z,10.10
2023-05-12T19:04:22.094Z,10.20
2023-05-12T19:06:49.613Z,10.20
2023-05-12T19:09:17.253Z,10.00
2023-05-12T19:11:47.187Z,10.10
2023-05-12T19:14:16.752Z,10.00
2023-05-12T19:16:46.506Z,10.20
2023-05-12T19:19:13.984Z,10.20
2023-05-12T19:21:41.395Z,10.20
2023-05-12T19:24:10.637Z,10.20
2023-05-12T19:26:37.837Z,10.20
2023-05-12T19:29:05.068Z,10.20
2023-05-12T19:31:34.220Z,10.20
2023-05-12T19:34:02.185Z,10.20
2023-05-12T19:36:30.877Z,10.20
2023-05-12T19:39:00.414Z,10.20
2023-05-12T19:41:28.962Z,10.10
2023-05-12T19:43:56.671Z,10.10
2023-05-12T19:46:24.136Z,10.10
2023-05-12T19:48:52.859Z,10.20
2023-05-12T19:51:20.597Z,10.20
2023-05-12T19:53:48.029Z,10.10
2023-05-12T19:56:15.313Z,10.10
2023-05-12T19:58:42.578Z,10.10
2023-05-12T20:01:12.381Z,10.00
2023-05-12T20:03:39.775Z,10.00
2023-05-12T20:06:07.450Z,10.00
2023-05-12T20:08:34.711Z,10.10
2023-05-12T20:11:01.921Z,10.10
2023-05-12T20:13:29.087Z,10.10
2023-05-12T20:15:56.402Z,10.10
2023-05-12T20:18:26.944Z,10.20
2023-05-12T20:20:54.696Z,10.00
2023-05-12T20:23:21.918Z,10.00
2023-05-12T20:25:49.119Z,9.90
2023-05-12T20:28:16.438Z,9.90
2023-05-12T20:30:43.813Z,9.90
2023-05-12T20:33:11.000Z,9.80
2023-05-12T20:35:38.304Z,9.70
2023-05-12T20:38:05.488Z,9.70
2023-05-12T20:40:51.217Z,9.70
2023-05-12T20:43:36.616Z,9.70
2023-05-12T20:46:04.593Z,9.70
2023-05-12T20:48:32.890Z,9.80
2023-05-12T20:51:09.535Z,9.80
2023-05-12T20:53:36.823Z,9.80
2023-05-12T20:56:04.105Z,9.80
2023-05-12T20:58:31.359Z,9.70
2023-05-12T21:00:59.198Z,9.70
2023-05-12T21:03:27.027Z,9.70
2023-05-12T21:05:54.543Z,9.60
2023-05-12T21:08:21.831Z,9.70
2023-05-12T21:10:49.063Z,9.60
2023-05-12T21:13:16.255Z,9.70
2023-05-12T21:15:43.444Z,9.70
2023-05-12T21:18:10.871Z,9.70
2023-05-12T21:20:38.071Z,9.80
2023-05-12T21:23:05.313Z,9.70
2023-05-12T21:25:32.473Z,9.80
2023-05-12T21:27:59.660Z,9.80
2023-05-12T21:30:26.996Z,9.70
2023-05-12T21:32:54.305Z,9.70
2023-05-12T21:35:21.671Z,9.80
2023-05-12T21:37:49.688Z,9.70
2023-05-12T21:40:16.995Z,9.80
2023-05-12T21:42:44.147Z,9.70
2023-05-12T21:45:11.385Z,9.60
2023-05-12T21:47:38.827Z,9.70
2023-05-12T21:50:06.388Z,9.60
2023-05-12T21:52:33.593Z,9.70
2023-05-12T21:55:04.756Z,9.70
2023-05-12T21:57:32.246Z,9.60
2023-05-12T22:00:03.918Z,9.70
2023-05-12T22:02:31.388Z,9.70
2023-05-12T22:04:58.551Z,9.70
2023-05-12T22:07:26.158Z,9.70
2023-05-12T22:09:53.337Z,9.70
2023-05-12T22:12:21.972Z,9.70
2023-05-12T22:14:49.194Z,9.70
2023-05-12T22:17:16.366Z,9.70
2023-05-12T22:19:43.494Z,9.70
2023-05-12T22:22:10.878Z,9.60
2023-05-12T22:24:38.117Z,9.50
2023-05-12T22:27:05.537Z,9.50
2023-05-12T22:29:32.785Z,9.50
2023-05-12T22:31:59.929Z,9.60
2023-05-12T22:34:27.111Z,9.60
2023-05-12T22:36:54.610Z,9.50
2023-05-12T22:39:21.736Z,9.40
2023-05-12T22:41:48.964Z,9.50
2023-05-12T22:44:16.135Z,9.50
2023-05-12T22:46:43.510Z,9.50
2023-05-12T22:49:11.085Z,9.60
2023-05-12T22:51:38.296Z,9.50
2023-05-12T22:54:05.550Z,9.60
2023-05-12T22:56:32.716Z,9.60
2023-05-12T22:58:59.900Z,9.60
2023-05-12T23:01:27.341Z,9.60
2023-05-12T23:03:54.583Z,9.70
2023-05-12T23:06:21.810Z,9.70
2023-05-12T23:08:49.331Z,9.70
2023-05-12T23:11:16.651Z,9.80
2023-05-12T23:13:43.787Z,9.80
2023-05-12T23:16:11.064Z,9.80
2023-05-12T23:18:38.286Z,9.80
2023-05-12T23:21:05.599Z,9.80
2023-05-12T23:23:33.283Z,9.80
2023-05-12T23:26:00.555Z,9.70
2023-05-12T23:28:27.779Z,9.60
2023-05-12T23:30:54.958Z,9.70
2023-05-12T23:33:22.176Z,9.70
2023-05-12T23:35:49.744Z,9.70
2023-05-12T23:38:16.921Z,9.70
2023-05-12T23:40:44.178Z,9.60
2023-05-12T23:43:11.638Z,9.60
2023-05-12T23:45:38.903Z,9.50
2023-05-12T23:48:06.435Z,9.60
2023-05-12T23:50:34.604Z,9.60
2023-05-12T23:53:01.762Z,9.60
2023-05-12T23:55:28.890Z,9.60
2023-05-12T23:57:56.325Z,9.60
